Flight Number: EUR3040 Duration: 11:00
Departure: Warsaw Okecie (EPWA) at 08:00 Distance: 4057 Nm
Arrival: Chicago O'Hare (KORD) at 19:00 Equipment: B747

Weather Information
Warszawa-Okecie, Poland (EPWA) 52-10N 020-58E 107M Nov 19, 2018 - 05:30 PM EST / 2018.11.19 2230 UTC
Wind: from the E (090 degrees) at 15 MPH (13 KT):0
Visibility: greater than 7 mile(s):0
Sky conditions: mostly cloudy Temperature: 35 F (2 C)
Windchill: 24 F (-4 C):1 Dew Point: 28 F (-2 C) Relative Humidity: 74% Pressure (altimeter): 30.30 in. Hg (1026 hPa)
ob: EPWA 192230Z 09013KT 9999 BKN019 02/M02 Q1026 NOSIG cycle: 22
Sunrise: 06:08 Sunset: 14:34 (UTC)

CHICAGO O'HARE INTERNATIONAL, IL, United States (KORD) 41-59N 087-55W 200M Nov 19, 2018 - 04:51 PM EST / 2018.11.19 2151 UTC
Wind: from the WSW (240 degrees) at 7 MPH (6 KT):0
Visibility: 10 mile(s):0
Sky conditions: mostly cloudy Temperature: 33.1 F (0.6 C)
Windchill: 26 F (-3 C):1 Dew Point: 25.0 F (-3.9 C) Relative Humidity: 71% Pressure (altimeter): 30.02 in. Hg (1016 hPa)
ob: KORD 192151Z 24006KT 10SM FEW075 FEW140 BKN180 BKN250 01/M04 A3002 RMK AO2 SLP173 T00061039 cycle: 22
Sunrise: 12:50 Sunset: 22:23 (UTC)

TAF:2018/11/19 21:58 TAF AMD KORD 192057Z 1921/2024 24008KT P6SM SCT020 BKN150 FM200000 32009KT P6SM SCT025 BKN120 FM200600 33010KT 6SM -SHSN SCT015 BKN025 TEMPO 2007/2010 3SM -SHSN BKN015 FM201100 32007KT P6SM SCT015 SCT080

Previous Pireps for this route
Date Aircraft Flight time Fuel used Landing rate On time
2016-05-07B74709.35208501-398Yes
(pireps marked green are flown by you)

Route map